sensor_id;sensor_type;location;lat;lon;timestamp;temperature;humidity
26342;DHT22;14054;50.108;8.640;2022-11-15T00:01:16;9.00;99.90
26342;DHT22;14054;50.108;8.640;2022-11-15T00:03:43;9.00;99.90
26342;DHT22;14054;50.108;8.640;2022-11-15T00:06:08;8.90;99.90
26342;DHT22;14054;50.108;8.640;2022-11-15T00:08:34;8.80;99.90
26342;DHT22;14054;50.108;8.640;2022-11-15T00:11:01;8.80;99.90
26342;DHT22;14054;50.108;8.640;2022-11-15T00:13:27;8.70;99.90
26342;DHT22;14054;50.108;8.640;2022-11-15T00:15:56;8.70;99.90
26342;DHT22;14054;50.108;8.640;2022-11-15T00:18:22;8.70;99.90
26342;DHT22;14054;50.108;8.640;2022-11-15T00:20:47;8.70;99.90
26342;DHT22;14054;50.108;8.640;2022-11-15T00:23:13;8.70;99.90
26342;DHT22;14054;50.108;8.640;2022-11-15T00:25:38;8.70;99.90
26342;DHT22;14054;50.108;8.640;2022-11-15T00:28:04;8.80;99.90
26342;DHT22;14054;50.108;8.640;2022-11-15T00:30:30;8.80;99.90
26342;DHT22;14054;50.108;8.640;2022-11-15T00:32:55;8.90;99.90
26342;DHT22;14054;50.108;8.640;2022-11-15T00:35:21;8.90;99.90
26342;DHT22;14054;50.108;8.640;2022-11-15T00:37:47;8.90;99.90
26342;DHT22;14054;50.108;8.640;2022-11-15T00:40:14;8.80;99.90
26342;DHT22;14054;50.108;8.640;2022-11-15T00:42:40;8.80;99.90
26342;DHT22;14054;50.108;8.640;2022-11-15T00:45:06;8.80;99.90
26342;DHT22;14054;50.108;8.640;2022-11-15T00:47:31;8.80;99.90
26342;DHT22;14054;50.108;8.640;2022-11-15T00:49:57;8.80;99.90
26342;DHT22;14054;50.108;8.640;2022-11-15T00:52:23;8.80;99.90
26342;DHT22;14054;50.108;8.640;2022-11-15T00:54:48;8.80;99.90
26342;DHT22;14054;50.108;8.640;2022-11-15T00:57:14;8.80;99.90
26342;DHT22;14054;50.108;8.640;2022-11-15T00:59:39;8.90;99.90
26342;DHT22;14054;50.108;8.640;2022-11-15T01:02:05;8.90;99.90
26342;DHT22;14054;50.108;8.640;2022-11-15T01:04:30;9.00;99.90
26342;DHT22;14054;50.108;8.640;2022-11-15T01:06:56;8.90;99.90
26342;DHT22;14054;50.108;8.640;2022-11-15T01:09:21;9.00;99.90
26342;DHT22;14054;50.108;8.640;2022-11-15T01:11:47;9.00;99.90
26342;DHT22;14054;50.108;8.640;2022-11-15T01:14:13;9.00;99.90
26342;DHT22;14054;50.108;8.640;2022-11-15T01:16:38;9.00;99.90
26342;DHT22;14054;50.108;8.640;2022-11-15T01:19:04;8.90;99.90
26342;DHT22;14054;50.108;8.640;2022-11-15T01:21:29;8.90;99.90
26342;DHT22;14054;50.108;8.640;2022-11-15T01:23:56;8.90;99.90
26342;DHT22;14054;50.108;8.640;2022-11-15T01:26:23;8.90;99.90
26342;DHT22;14054;50.108;8.640;2022-11-15T01:28:49;8.80;99.90
26342;DHT22;14054;50.108;8.640;2022-11-15T01:31:19;8.80;99.90
26342;DHT22;14054;50.108;8.640;2022-11-15T01:33:45;8.80;99.90
26342;DHT22;14054;50.108;8.640;2022-11-15T01:36:16;8.80;99.90
26342;DHT22;14054;50.108;8.640;2022-11-15T01:38:42;8.90;99.90
26342;DHT22;14054;50.108;8.640;2022-11-15T01:41:15;8.80;99.90
26342;DHT22;14054;50.108;8.640;2022-11-15T01:43:41;8.80;99.90
26342;DHT22;14054;50.108;8.640;2022-11-15T01:48:47;8.90;99.90
26342;DHT22;14054;50.108;8.640;2022-11-15T01:51:17;8.90;99.90
26342;DHT22;14054;50.108;8.640;2022-11-15T01:53:45;9.00;99.90
26342;DHT22;14054;50.108;8.640;2022-11-15T01:56:15;9.00;99.90
26342;DHT22;14054;50.108;8.640;2022-11-15T01:58:43;9.00;99.90
26342;DHT22;14054;50.108;8.640;2022-11-15T02:01:09;9.00;99.90
26342;DHT22;14054;50.108;8.640;2022-11-15T02:03:44;9.00;99.90
26342;DHT22;14054;50.108;8.640;2022-11-15T02:06:12;9.00;99.90
26342;DHT22;14054;50.108;8.640;2022-11-15T02:08:37;9.10;99.90
26342;DHT22;14054;50.108;8.640;2022-11-15T02:11:08;9.20;99.90
26342;DHT22;14054;50.108;8.640;2022-11-15T02:13:33;9.20;99.90
26342;DHT22;14054;50.108;8.640;2022-11-15T02:22:19;9.30;99.90
26342;DHT22;14054;50.108;8.640;2022-11-15T02:30:55;9.40;99.90
26342;DHT22;14054;50.108;8.640;2022-11-15T02:33:41;9.40;99.90
26342;DHT22;14054;50.108;8.640;2022-11-15T02:36:27;9.50;99.90
26342;DHT22;14054;50.108;8.640;2022-11-15T02:39:28;9.50;99.90
26342;DHT22;14054;50.108;8.640;2022-11-15T02:42:09;9.50;99.90
26342;DHT22;14054;50.108;8.640;2022-11-15T02:44:57;9.50;99.90
26342;DHT22;14054;50.108;8.640;2022-11-15T02:47:24;9.50;99.90
26342;DHT22;14054;50.108;8.640;2022-11-15T02:49:53;9.50;99.90
26342;DHT22;14054;50.108;8.640;2022-11-15T02:52:21;9.50;99.90
26342;DHT22;14054;50.108;8.640;2022-11-15T02:54:54;9.50;99.90
26342;DHT22;14054;50.108;8.640;2022-11-15T02:57:44;9.50;99.90
26342;DHT22;14054;50.108;8.640;2022-11-15T03:00:18;9.40;99.90
26342;DHT22;14054;50.108;8.640;2022-11-15T03:03:13;9.40;99.90
26342;DHT22;14054;50.108;8.640;2022-11-15T03:06:00;9.30;99.90
26342;DHT22;14054;50.108;8.640;2022-11-15T03:08:38;9.30;99.90
26342;DHT22;14054;50.108;8.640;2022-11-15T03:11:19;9.20;99.90
26342;DHT22;14054;50.108;8.640;2022-11-15T03:14:24;9.10;99.90
26342;DHT22;14054;50.108;8.640;2022-11-15T03:22:05;8.90;99.90
26342;DHT22;14054;50.108;8.640;2022-11-15T03:24:35;9.00;99.90
26342;DHT22;14054;50.108;8.640;2022-11-15T03:27:03;9.00;99.90
26342;DHT22;14054;50.108;8.640;2022-11-15T03:29:34;8.90;99.90
26342;DHT22;14054;50.108;8.640;2022-11-15T03:32:11;9.00;99.90
26342;DHT22;14054;50.108;8.640;2022-11-15T03:34:45;8.90;99.90
26342;DHT22;14054;50.108;8.640;2022-11-15T03:37:14;8.90;99.90
26342;DHT22;14054;50.108;8.640;2022-11-15T03:39:42;9.00;99.90
26342;DHT22;14054;50.108;8.640;2022-11-15T03:47:20;9.00;99.90
26342;DHT22;14054;50.108;8.640;2022-11-15T03:49:55;9.00;99.90
26342;DHT22;14054;50.108;8.640;2022-11-15T03:52:22;9.00;99.90
26342;DHT22;14054;50.108;8.640;2022-11-15T03:54:50;9.10;99.90
26342;DHT22;14054;50.108;8.640;2022-11-15T03:57:16;9.00;99.90
26342;DHT22;14054;50.108;8.640;2022-11-15T03:59:41;9.00;99.90
26342;DHT22;14054;50.108;8.640;2022-11-15T04:02:07;9.00;99.90
26342;DHT22;14054;50.108;8.640;2022-11-15T04:04:32;9.10;99.90
26342;DHT22;14054;50.108;8.640;2022-11-15T04:06:58;9.10;99.90
26342;DHT22;14054;50.108;8.640;2022-11-15T04:09:23;9.10;99.90
26342;DHT22;14054;50.108;8.640;2022-11-15T04:11:49;9.10;99.90
26342;DHT22;14054;50.108;8.640;2022-11-15T04:14:14;9.10;99.90
26342;DHT22;14054;50.108;8.640;2022-11-15T04:16:39;9.10;99.90
26342;DHT22;14054;50.108;8.640;2022-11-15T04:19:05;9.00;99.90
26342;DHT22;14054;50.108;8.640;2022-11-15T04:21:49;9.10;99.90
26342;DHT22;14054;50.108;8.640;2022-11-15T04:24:33;9.00;99.90
26342;DHT22;14054;50.108;8.640;2022-11-15T04:26:59;9.10;99.90
26342;DHT22;14054;50.108;8.640;2022-11-15T04:29:25;9.10;99.90
26342;DHT22;14054;50.108;8.640;2022-11-15T04:31:59;9.10;99.90
26342;DHT22;14054;50.108;8.640;2022-11-15T04:34:25;9.20;99.90
26342;DHT22;14054;50.108;8.640;2022-11-15T04:36:50;9.20;99.90
26342;DHT22;14054;50.108;8.640;2022-11-15T04:39:34;9.20;99.90
26342;DHT22;14054;50.108;8.640;2022-11-15T04:42:00;9.30;99.90
26342;DHT22;14054;50.108;8.640;2022-11-15T04:44:25;9.30;99.90
26342;DHT22;14054;50.108;8.640;2022-11-15T04:46:51;9.30;99.90
26342;DHT22;14054;50.108;8.640;2022-11-15T04:49:16;9.30;99.90
26342;DHT22;14054;50.108;8.640;2022-11-15T04:51:42;9.30;99.90
26342;DHT22;14054;50.108;8.640;2022-11-15T04:54:07;9.40;99.90
26342;DHT22;14054;50.108;8.640;2022-11-15T04:56:33;9.40;99.90
26342;DHT22;14054;50.108;8.640;2022-11-15T04:58:58;9.40;99.90
26342;DHT22;14054;50.108;8.640;2022-11-15T05:01:24;9.40;99.90
26342;DHT22;14054;50.108;8.640;2022-11-15T05:03:49;9.40;99.90
26342;DHT22;14054;50.108;8.640;2022-11-15T05:06:33;9.30;99.90
26342;DHT22;14054;50.108;8.640;2022-11-15T05:08:59;9.30;99.90
26342;DHT22;14054;50.108;8.640;2022-11-15T05:11:24;9.40;99.90
26342;DHT22;14054;50.108;8.640;2022-11-15T05:13:50;9.40;99.90
26342;DHT22;14054;50.108;8.640;2022-11-15T05:16:16;9.50;99.90
26342;DHT22;14054;50.108;8.640;2022-11-15T05:18:41;9.50;99.90
26342;DHT22;14054;50.108;8.640;2022-11-15T05:21:09;9.50;99.90
26342;DHT22;14054;50.108;8.640;2022-11-15T05:23:35;9.50;99.90
26342;DHT22;14054;50.108;8.640;2022-11-15T05:26:02;9.50;99.90
26342;DHT22;14054;50.108;8.640;2022-11-15T05:28:29;9.50;99.90
26342;DHT22;14054;50.108;8.640;2022-11-15T05:31:04;9.50;99.90
26342;DHT22;14054;50.108;8.640;2022-11-15T05:33:30;9.60;99.90
26342;DHT22;14054;50.108;8.640;2022-11-15T05:36:02;9.60;99.90
26342;DHT22;14054;50.108;8.640;2022-11-15T05:38:29;9.60;99.90
26342;DHT22;14054;50.108;8.640;2022-11-15T05:40:55;9.60;99.90
26342;DHT22;14054;50.108;8.640;2022-11-15T05:43:21;9.60;99.90
26342;DHT22;14054;50.108;8.640;2022-11-15T05:45:47;9.60;99.90
26342;DHT22;14054;50.108;8.640;2022-11-15T05:48:13;9.60;99.90
26342;DHT22;14054;50.108;8.640;2022-11-15T05:50:42;9.70;99.90
26342;DHT22;14054;50.108;8.640;2022-11-15T05:53:10;9.60;99.90
26342;DHT22;14054;50.108;8.640;2022-11-15T05:55:38;9.60;99.90
26342;DHT22;14054;50.108;8.640;2022-11-15T05:58:04;9.70;99.90
26342;DHT22;14054;50.108;8.640;2022-11-15T06:00:29;9.70;99.90
26342;DHT22;14054;50.108;8.640;2022-11-15T06:02:55;9.70;99.90
26342;DHT22;14054;50.108;8.640;2022-11-15T06:05:20;9.70;99.90
26342;DHT22;14054;50.108;8.640;2022-11-15T06:07:46;9.80;99.90
26342;DHT22;14054;50.108;8.640;2022-11-15T06:10:11;9.80;99.90
26342;DHT22;14054;50.108;8.640;2022-11-15T06:12:37;9.90;99.90
26342;DHT22;14054;50.108;8.640;2022-11-15T06:15:03;9.90;99.90
26342;DHT22;14054;50.108;8.640;2022-11-15T06:17:28;9.90;99.90
26342;DHT22;14054;50.108;8.640;2022-11-15T06:19:54;9.90;99.90
26342;DHT22;14054;50.108;8.640;2022-11-15T06:22:19;9.90;99.90
26342;DHT22;14054;50.108;8.640;2022-11-15T06:24:45;9.90;99.90
26342;DHT22;14054;50.108;8.640;2022-11-15T06:27:11;9.90;99.90
26342;DHT22;14054;50.108;8.640;2022-11-15T06:29:37;9.90;99.90
26342;DHT22;14054;50.108;8.640;2022-11-15T06:32:02;9.90;99.90
26342;DHT22;14054;50.108;8.640;2022-11-15T06:34:28;10.00;99.90
26342;DHT22;14054;50.108;8.640;2022-11-15T06:36:53;10.00;99.90
26342;DHT22;14054;50.108;8.640;2022-11-15T06:39:18;10.00;99.90
26342;DHT22;14054;50.108;8.640;2022-11-15T06:41:44;10.00;99.90
26342;DHT22;14054;50.108;8.640;2022-11-15T06:44:09;10.10;99.90
26342;DHT22;14054;50.108;8.640;2022-11-15T06:46:35;10.10;99.90
26342;DHT22;14054;50.108;8.640;2022-11-15T06:49:00;10.00;99.90
26342;DHT22;14054;50.108;8.640;2022-11-15T06:51:26;10.10;99.90
26342;DHT22;14054;50.108;8.640;2022-11-15T06:53:51;10.00;99.90
26342;DHT22;14054;50.108;8.640;2022-11-15T06:56:17;10.00;99.90
26342;DHT22;14054;50.108;8.640;2022-11-15T06:58:42;10.00;99.90
26342;DHT22;14054;50.108;8.640;2022-11-15T07:01:10;10.00;99.90
26342;DHT22;14054;50.108;8.640;2022-11-15T07:03:38;10.00;99.90
26342;DHT22;14054;50.108;8.640;2022-11-15T07:06:04;10.20;99.90
26342;DHT22;14054;50.108;8.640;2022-11-15T07:08:29;10.40;99.90
26342;DHT22;14054;50.108;8.640;2022-11-15T07:10:58;10.40;99.90
26342;DHT22;14054;50.108;8.640;2022-11-15T07:13:26;10.40;99.90
26342;DHT22;14054;50.108;8.640;2022-11-15T07:15:52;10.40;99.90
26342;DHT22;14054;50.108;8.640;2022-11-15T07:18:18;10.30;99.90
26342;DHT22;14054;50.108;8.640;2022-11-15T07:20:43;10.40;99.90
26342;DHT22;14054;50.108;8.640;2022-11-15T07:23:09;10.50;99.90
26342;DHT22;14054;50.108;8.640;2022-11-15T07:25:34;10.60;99.90
26342;DHT22;14054;50.108;8.640;2022-11-15T07:28:00;10.80;99.90
26342;DHT22;14054;50.108;8.640;2022-11-15T07:30:44;11.10;99.90
26342;DHT22;14054;50.108;8.640;2022-11-15T07:33:09;11.30;99.90
26342;DHT22;14054;50.108;8.640;2022-11-15T07:35:35;11.70;99.90
26342;DHT22;14054;50.108;8.640;2022-11-15T07:38:01;11.80;99.90
26342;DHT22;14054;50.108;8.640;2022-11-15T07:40:30;11.90;99.90
26342;DHT22;14054;50.108;8.640;2022-11-15T07:43:06;12.00;99.90
26342;DHT22;14054;50.108;8.640;2022-11-15T07:45:32;12.00;99.90
26342;DHT22;14054;50.108;8.640;2022-11-15T07:47:59;11.90;99.90
26342;DHT22;14054;50.108;8.640;2022-11-15T07:50:25;11.90;99.90
26342;DHT22;14054;50.108;8.640;2022-11-15T07:52:58;11.80;99.90
26342;DHT22;14054;50.108;8.640;2022-11-15T07:55:26;11.70;99.90
26342;DHT22;14054;50.108;8.640;2022-11-15T07:57:52;11.70;99.90
26342;DHT22;14054;50.108;8.640;2022-11-15T08:00:18;11.70;99.90
26342;DHT22;14054;50.108;8.640;2022-11-15T08:02:44;11.70;99.90
26342;DHT22;14054;50.108;8.640;2022-11-15T08:05:09;11.70;99.90
26342;DHT22;14054;50.108;8.640;2022-11-15T08:07:34;11.80;99.90
26342;DHT22;14054;50.108;8.640;2022-11-15T08:10:00;11.80;99.90
26342;DHT22;14054;50.108;8.640;2022-11-15T08:12:27;11.80;99.90
26342;DHT22;14054;50.108;8.640;2022-11-15T08:14:54;11.90;99.90
26342;DHT22;14054;50.108;8.640;2022-11-15T08:17:21;11.90;99.90
26342;DHT22;14054;50.108;8.640;2022-11-15T08:19:46;12.00;99.90
26342;DHT22;14054;50.108;8.640;2022-11-15T08:22:12;12.00;99.90
26342;DHT22;14054;50.108;8.640;2022-11-15T08:24:50;11.80;99.90
26342;DHT22;14054;50.108;8.640;2022-11-15T08:27:16;11.80;99.90
26342;DHT22;14054;50.108;8.640;2022-11-15T08:29:45;11.80;99.90
26342;DHT22;14054;50.108;8.640;2022-11-15T08:32:11;11.70;99.90
26342;DHT22;14054;50.108;8.640;2022-11-15T08:34:38;11.80;99.90
26342;DHT22;14054;50.108;8.640;2022-11-15T08:37:04;11.80;99.90
26342;DHT22;14054;50.108;8.640;2022-11-15T08:39:30;11.90;99.90
26342;DHT22;14054;50.108;8.640;2022-11-15T08:41:55;12.00;99.90
26342;DHT22;14054;50.108;8.640;2022-11-15T08:44:21;12.00;99.90
26342;DHT22;14054;50.108;8.640;2022-11-15T08:46:46;12.10;99.90
26342;DHT22;14054;50.108;8.640;2022-11-15T08:49:12;12.10;99.90
26342;DHT22;14054;50.108;8.640;2022-11-15T08:51:37;12.10;99.90
26342;DHT22;14054;50.108;8.640;2022-11-15T08:54:03;12.00;99.90
26342;DHT22;14054;50.108;8.640;2022-11-15T08:56:30;12.00;99.90
26342;DHT22;14054;50.108;8.640;2022-11-15T08:58:55;12.10;99.90
26342;DHT22;14054;50.108;8.640;2022-11-15T09:01:21;12.00;99.90
26342;DHT22;14054;50.108;8.640;2022-11-15T09:03:47;12.00;99.90
26342;DHT22;14054;50.108;8.640;2022-11-15T09:06:13;12.10;99.90
26342;DHT22;14054;50.108;8.640;2022-11-15T09:08:39;12.10;99.90
26342;DHT22;14054;50.108;8.640;2022-11-15T09:11:06;12.20;99.90
26342;DHT22;14054;50.108;8.640;2022-11-15T09:13:32;12.20;99.90
26342;DHT22;14054;50.108;8.640;2022-11-15T09:15:59;12.20;99.90
26342;DHT22;14054;50.108;8.640;2022-11-15T09:18:25;12.20;99.90
26342;DHT22;14054;50.108;8.640;2022-11-15T09:20:50;12.30;99.90
26342;DHT22;14054;50.108;8.640;2022-11-15T09:23:16;12.40;99.90
26342;DHT22;14054;50.108;8.640;2022-11-15T09:25:42;12.30;99.90
26342;DHT22;14054;50.108;8.640;2022-11-15T09:28:08;12.30;99.90
26342;DHT22;14054;50.108;8.640;2022-11-15T09:30:34;12.40;99.90
26342;DHT22;14054;50.108;8.640;2022-11-15T09:33:06;12.40;99.90
26342;DHT22;14054;50.108;8.640;2022-11-15T09:35:32;12.50;99.90
26342;DHT22;14054;50.108;8.640;2022-11-15T09:37:58;12.40;99.90
26342;DHT22;14054;50.108;8.640;2022-11-15T09:40:24;12.30;99.90
26342;DHT22;14054;50.108;8.640;2022-11-15T09:43:08;12.30;99.90
26342;DHT22;14054;50.108;8.640;2022-11-15T09:50:58;12.50;99.90
26342;DHT22;14054;50.108;8.640;2022-11-15T09:53:49;12.70;99.90
26342;DHT22;14054;50.108;8.640;2022-11-15T09:56:21;13.20;99.90
26342;DHT22;14054;50.108;8.640;2022-11-15T10:04:10;14.20;99.90
26342;DHT22;14054;50.108;8.640;2022-11-15T10:06:41;14.80;99.90
26342;DHT22;14054;50.108;8.640;2022-11-15T10:09:15;15.10;99.90
26342;DHT22;14054;50.108;8.640;2022-11-15T10:11:42;15.20;99.90
26342;DHT22;14054;50.108;8.640;2022-11-15T10:25:17;15.00;99.90
26342;DHT22;14054;50.108;8.640;2022-11-15T10:27:45;14.80;99.90
26342;DHT22;14054;50.108;8.640;2022-11-15T10:30:15;14.60;99.90
26342;DHT22;14054;50.108;8.640;2022-11-15T10:32:43;14.30;99.90
26342;DHT22;14054;50.108;8.640;2022-11-15T10:35:24;14.20;99.90
26342;DHT22;14054;50.108;8.640;2022-11-15T10:37:50;14.30;99.90
26342;DHT22;14054;50.108;8.640;2022-11-15T10:40:20;14.20;99.90
26342;DHT22;14054;50.108;8.640;2022-11-15T10:42:46;14.00;99.90
26342;DHT22;14054;50.108;8.640;2022-11-15T10:45:29;13.70;99.90
26342;DHT22;14054;50.108;8.640;2022-11-15T10:50:45;13.70;99.90
26342;DHT22;14054;50.108;8.640;2022-11-15T10:53:33;13.70;99.90
26342;DHT22;14054;50.108;8.640;2022-11-15T10:56:06;13.60;99.90
26342;DHT22;14054;50.108;8.640;2022-11-15T10:58:45;13.70;99.90
26342;DHT22;14054;50.108;8.640;2022-11-15T11:01:19;13.80;99.90
26342;DHT22;14054;50.108;8.640;2022-11-15T11:04:07;13.90;99.90
26342;DHT22;14054;50.108;8.640;2022-11-15T11:06:59;14.20;99.90
26342;DHT22;14054;50.108;8.640;2022-11-15T11:09:36;13.90;99.90
26342;DHT22;14054;50.108;8.640;2022-11-15T11:12:05;13.70;99.90
26342;DHT22;14054;50.108;8.640;2022-11-15T11:14:34;13.90;99.90
26342;DHT22;14054;50.108;8.640;2022-11-15T11:25:23;14.50;99.90
26342;DHT22;14054;50.108;8.640;2022-11-15T11:28:05;16.30;99.90
26342;DHT22;14054;50.108;8.640;2022-11-15T11:33:24;17.60;99.90
26342;DHT22;14054;50.108;8.640;2022-11-15T11:38:34;16.40;99.90
26342;DHT22;14054;50.108;8.640;2022-11-15T11:41:27;15.90;99.90
26342;DHT22;14054;50.108;8.640;2022-11-15T11:46:41;15.50;99.90
26342;DHT22;14054;50.108;8.640;2022-11-15T11:49:12;15.20;99.90
26342;DHT22;14054;50.108;8.640;2022-11-15T11:56:48;14.80;99.90
26342;DHT22;14054;50.108;8.640;2022-11-15T12:01:54;14.50;99.90
26342;DHT22;14054;50.108;8.640;2022-11-15T12:04:32;14.20;99.90
26342;DHT22;14054;50.108;8.640;2022-11-15T12:07:15;12.60;99.90
26342;DHT22;14054;50.108;8.640;2022-11-15T12:12:49;14.40;99.90
26342;DHT22;14054;50.108;8.640;2022-11-15T12:15:27;14.70;99.90
26342;DHT22;14054;50.108;8.640;2022-11-15T12:17:57;15.20;99.90
26342;DHT22;14054;50.108;8.640;2022-11-15T12:20:24;15.30;99.90
26342;DHT22;14054;50.108;8.640;2022-11-15T12:23:16;15.10;99.90
26342;DHT22;14054;50.108;8.640;2022-11-15T12:26:03;14.90;99.90
26342;DHT22;14054;50.108;8.640;2022-11-15T12:28:47;15.20;99.90
26342;DHT22;14054;50.108;8.640;2022-11-15T12:31:21;15.30;99.90
26342;DHT22;14054;50.108;8.640;2022-11-15T12:33:48;15.40;99.90
26342;DHT22;14054;50.108;8.640;2022-11-15T12:38:58;15.20;99.90
26342;DHT22;14054;50.108;8.640;2022-11-15T12:41:26;15.10;99.90
26342;DHT22;14054;50.108;8.640;2022-11-15T12:43:52;14.90;99.90
26342;DHT22;14054;50.108;8.640;2022-11-15T12:51:09;14.50;99.90
26342;DHT22;14054;50.108;8.640;2022-11-15T12:53:34;14.40;99.90
26342;DHT22;14054;50.108;8.640;2022-11-15T13:06:48;13.90;99.90
26342;DHT22;14054;50.108;8.640;2022-11-15T13:14:42;14.00;99.90
26342;DHT22;14054;50.108;8.640;2022-11-15T13:17:28;14.00;99.90
26342;DHT22;14054;50.108;8.640;2022-11-15T13:25:38;14.00;99.90
26342;DHT22;14054;50.108;8.640;2022-11-15T13:30:52;14.10;99.90
26342;DHT22;14054;50.108;8.640;2022-11-15T13:35:57;14.20;99.90
26342;DHT22;14054;50.108;8.640;2022-11-15T13:38:35;14.10;99.90
26342;DHT22;14054;50.108;8.640;2022-11-15T13:41:20;14.10;99.90
26342;DHT22;14054;50.108;8.640;2022-11-15T13:43:47;14.10;99.90
26342;DHT22;14054;50.108;8.640;2022-11-15T13:46:30;14.00;99.90
26342;DHT22;14054;50.108;8.640;2022-11-15T13:49:00;13.90;99.90
26342;DHT22;14054;50.108;8.640;2022-11-15T13:51:37;13.90;99.90
26342;DHT22;14054;50.108;8.640;2022-11-15T13:56:44;14.00;99.90
26342;DHT22;14054;50.108;8.640;2022-11-15T13:59:15;13.90;99.90
26342;DHT22;14054;50.108;8.640;2022-11-15T14:01:43;13.90;99.90
26342;DHT22;14054;50.108;8.640;2022-11-15T14:04:12;13.90;99.90
26342;DHT22;14054;50.108;8.640;2022-11-15T14:06:45;14.00;99.90
26342;DHT22;14054;50.108;8.640;2022-11-15T14:09:18;13.90;99.90
26342;DHT22;14054;50.108;8.640;2022-11-15T14:11:50;13.90;99.90
26342;DHT22;14054;50.108;8.640;2022-11-15T14:14:16;13.80;99.90
26342;DHT22;14054;50.108;8.640;2022-11-15T14:16:47;13.90;99.90
26342;DHT22;14054;50.108;8.640;2022-11-15T14:19:33;13.80;99.90
26342;DHT22;14054;50.108;8.640;2022-11-15T14:22:20;13.80;99.90
26342;DHT22;14054;50.108;8.640;2022-11-15T14:25:18;13.70;99.90
26342;DHT22;14054;50.108;8.640;2022-11-15T14:30:34;13.80;99.90
26342;DHT22;14054;50.108;8.640;2022-11-15T14:32:59;13.70;99.90
26342;DHT22;14054;50.108;8.640;2022-11-15T14:35:25;13.70;99.90
26342;DHT22;14054;50.108;8.640;2022-11-15T14:37:50;13.60;99.90
26342;DHT22;14054;50.108;8.640;2022-11-15T14:40:18;13.60;99.90
26342;DHT22;14054;50.108;8.640;2022-11-15T14:42:46;13.60;99.90
26342;DHT22;14054;50.108;8.640;2022-11-15T14:45:17;13.60;99.90
26342;DHT22;14054;50.108;8.640;2022-11-15T14:47:43;13.60;99.90
26342;DHT22;14054;50.108;8.640;2022-11-15T14:50:17;13.60;99.90
26342;DHT22;14054;50.108;8.640;2022-11-15T14:52:43;13.60;99.90
26342;DHT22;14054;50.108;8.640;2022-11-15T14:55:33;13.60;99.90
26342;DHT22;14054;50.108;8.640;2022-11-15T14:58:02;13.50;99.90
26342;DHT22;14054;50.108;8.640;2022-11-15T15:00:32;13.50;99.90
26342;DHT22;14054;50.108;8.640;2022-11-15T15:02:58;13.50;99.90
26342;DHT22;14054;50.108;8.640;2022-11-15T15:05:37;13.50;99.90
26342;DHT22;14054;50.108;8.640;2022-11-15T15:08:03;13.40;99.90
26342;DHT22;14054;50.108;8.640;2022-11-15T15:10:38;13.40;99.90
26342;DHT22;14054;50.108;8.640;2022-11-15T15:13:04;13.40;99.90
26342;DHT22;14054;50.108;8.640;2022-11-15T15:15:35;13.30;99.90
26342;DHT22;14054;50.108;8.640;2022-11-15T15:18:02;13.30;99.90
26342;DHT22;14054;50.108;8.640;2022-11-15T15:20:28;13.30;99.90
26342;DHT22;14054;50.108;8.640;2022-11-15T15:22:54;13.20;99.90
26342;DHT22;14054;50.108;8.640;2022-11-15T15:27:47;13.20;99.90
26342;DHT22;14054;50.108;8.640;2022-11-15T15:30:13;13.20;99.90
26342;DHT22;14054;50.108;8.640;2022-11-15T15:32:38;13.10;99.90
26342;DHT22;14054;50.108;8.640;2022-11-15T15:35:04;13.10;99.90
26342;DHT22;14054;50.108;8.640;2022-11-15T15:37:30;13.00;99.90
26342;DHT22;14054;50.108;8.640;2022-11-15T15:39:59;12.90;99.90
26342;DHT22;14054;50.108;8.640;2022-11-15T15:42:25;12.90;99.90
26342;DHT22;14054;50.108;8.640;2022-11-15T15:44:51;12.90;99.90
26342;DHT22;14054;50.108;8.640;2022-11-15T15:47:19;12.90;99.90
26342;DHT22;14054;50.108;8.640;2022-11-15T15:49:45;12.90;99.90
26342;DHT22;14054;50.108;8.640;2022-11-15T15:52:10;12.90;99.90
26342;DHT22;14054;50.108;8.640;2022-11-15T15:54:37;12.90;99.90
26342;DHT22;14054;50.108;8.640;2022-11-15T15:57:02;12.90;99.90
26342;DHT22;14054;50.108;8.640;2022-11-15T15:59:28;12.90;99.90
26342;DHT22;14054;50.108;8.640;2022-11-15T16:01:53;12.90;99.90
26342;DHT22;14054;50.108;8.640;2022-11-15T16:04:19;13.00;99.90
26342;DHT22;14054;50.108;8.640;2022-11-15T16:06:44;13.00;99.90
26342;DHT22;14054;50.108;8.640;2022-11-15T16:09:14;13.00;99.90
26342;DHT22;14054;50.108;8.640;2022-11-15T16:11:41;13.00;99.90
26342;DHT22;14054;50.108;8.640;2022-11-15T16:14:07;13.10;99.90
26342;DHT22;14054;50.108;8.640;2022-11-15T16:16:34;13.00;99.90
26342;DHT22;14054;50.108;8.640;2022-11-15T16:18:59;13.00;99.90
26342;DHT22;14054;50.108;8.640;2022-11-15T16:21:26;13.00;99.90
26342;DHT22;14054;50.108;8.640;2022-11-15T16:23:52;12.90;99.90
26342;DHT22;14054;50.108;8.640;2022-11-15T16:26:27;13.00;99.90
26342;DHT22;14054;50.108;8.640;2022-11-15T16:28:54;12.90;99.90
26342;DHT22;14054;50.108;8.640;2022-11-15T16:31:19;13.00;99.90
26342;DHT22;14054;50.108;8.640;2022-11-15T16:33:48;12.90;99.90
26342;DHT22;14054;50.108;8.640;2022-11-15T16:36:23;12.90;99.90
26342;DHT22;14054;50.108;8.640;2022-11-15T16:38:49;12.90;99.90
26342;DHT22;14054;50.108;8.640;2022-11-15T16:41:16;12.90;99.90
26342;DHT22;14054;50.108;8.640;2022-11-15T16:43:47;12.90;99.90
26342;DHT22;14054;50.108;8.640;2022-11-15T16:46:28;12.90;99.90
26342;DHT22;14054;50.108;8.640;2022-11-15T16:48:57;12.90;99.90
26342;DHT22;14054;50.108;8.640;2022-11-15T16:51:23;12.80;99.90
26342;DHT22;14054;50.108;8.640;2022-11-15T16:53:48;12.80;99.90
26342;DHT22;14054;50.108;8.640;2022-11-15T16:56:23;12.80;99.90
26342;DHT22;14054;50.108;8.640;2022-11-15T16:58:50;12.70;99.90
26342;DHT22;14054;50.108;8.640;2022-11-15T17:01:18;12.70;99.90
26342;DHT22;14054;50.108;8.640;2022-11-15T17:03:44;12.70;99.90
26342;DHT22;14054;50.108;8.640;2022-11-15T17:06:10;12.70;99.90
26342;DHT22;14054;50.108;8.640;2022-11-15T17:08:37;12.60;99.90
26342;DHT22;14054;50.108;8.640;2022-11-15T17:11:09;12.70;99.90
26342;DHT22;14054;50.108;8.640;2022-11-15T17:13:34;12.70;99.90
26342;DHT22;14054;50.108;8.640;2022-11-15T17:16:09;12.60;99.90
26342;DHT22;14054;50.108;8.640;2022-11-15T17:18:35;12.70;99.90
26342;DHT22;14054;50.108;8.640;2022-11-15T17:21:15;12.70;99.90
26342;DHT22;14054;50.108;8.640;2022-11-15T17:23:41;12.70;99.90
26342;DHT22;14054;50.108;8.640;2022-11-15T17:26:08;12.60;99.90
26342;DHT22;14054;50.108;8.640;2022-11-15T17:28:35;12.60;99.90
26342;DHT22;14054;50.108;8.640;2022-11-15T17:31:04;12.70;99.90
26342;DHT22;14054;50.108;8.640;2022-11-15T17:33:30;12.70;99.90
26342;DHT22;14054;50.108;8.640;2022-11-15T17:35:57;12.70;99.90
26342;DHT22;14054;50.108;8.640;2022-11-15T17:38:23;12.70;99.90
26342;DHT22;14054;50.108;8.640;2022-11-15T17:40:48;12.80;99.90
26342;DHT22;14054;50.108;8.640;2022-11-15T17:43:23;12.80;99.90
26342;DHT22;14054;50.108;8.640;2022-11-15T17:45:49;12.70;99.90
26342;DHT22;14054;50.108;8.640;2022-11-15T17:48:14;12.70;99.90
26342;DHT22;14054;50.108;8.640;2022-11-15T17:50:40;12.70;99.90